sensor_id;sensor_type;location;lat;lon;timestamp;P1;durP1;ratioP1;P2;durP2;ratioP2
4915;SDS011;70796;52.406;13.230;2024-03-02T00:01:11;76.77;;;45.47;;
4915;SDS011;70796;52.406;13.230;2024-03-02T00:03:38;81.77;;;45.80;;
4915;SDS011;70796;52.406;13.230;2024-03-02T00:06:04;88.83;;;45.07;;
4915;SDS011;70796;52.406;13.230;2024-03-02T00:08:30;78.17;;;43.70;;
4915;SDS011;70796;52.406;13.230;2024-03-02T00:11:00;81.60;;;45.50;;
4915;SDS011;70796;52.406;13.230;2024-03-02T00:13:27;78.03;;;43.50;;
4915;SDS011;70796;52.406;13.230;2024-03-02T00:15:56;76.43;;;43.63;;
4915;SDS011;70796;52.406;13.230;2024-03-02T00:20:52;80.47;;;44.07;;
4915;SDS011;70796;52.406;13.230;2024-03-02T00:23:19;73.00;;;42.73;;
4915;SDS011;70796;52.406;13.230;2024-03-02T00:25:50;69.70;;;40.43;;
4915;SDS011;70796;52.406;13.230;2024-03-02T00:30:55;68.10;;;42.47;;
4915;SDS011;70796;52.406;13.230;2024-03-02T00:33:22;71.90;;;39.93;;
4915;SDS011;70796;52.406;13.230;2024-03-02T00:35:48;72.87;;;41.60;;
4915;SDS011;70796;52.406;13.230;2024-03-02T00:38:15;69.27;;;39.43;;
4915;SDS011;70796;52.406;13.230;2024-03-02T00:40:42;73.07;;;43.77;;
4915;SDS011;70796;52.406;13.230;2024-03-02T00:43:11;74.20;;;40.97;;
4915;SDS011;70796;52.406;13.230;2024-03-02T00:45:42;73.80;;;40.30;;
4915;SDS011;70796;52.406;13.230;2024-03-02T00:48:10;70.43;;;42.20;;
4915;SDS011;70796;52.406;13.230;2024-03-02T00:50:36;82.50;;;40.90;;
4915;SDS011;70796;52.406;13.230;2024-03-02T00:53:02;62.50;;;38.00;;
4915;SDS011;70796;52.406;13.230;2024-03-02T00:55:28;70.37;;;42.07;;
4915;SDS011;70796;52.406;13.230;2024-03-02T00:57:54;63.40;;;39.30;;
4915;SDS011;70796;52.406;13.230;2024-03-02T01:00:20;75.07;;;42.77;;
4915;SDS011;70796;52.406;13.230;2024-03-02T01:02:47;71.87;;;42.10;;
4915;SDS011;70796;52.406;13.230;2024-03-02T01:05:13;74.87;;;42.70;;
4915;SDS011;70796;52.406;13.230;2024-03-02T01:07:39;72.80;;;40.27;;
4915;SDS011;70796;52.406;13.230;2024-03-02T01:10:06;75.97;;;43.00;;
4915;SDS011;70796;52.406;13.230;2024-03-02T01:12:32;69.37;;;39.87;;
4915;SDS011;70796;52.406;13.230;2024-03-02T01:14:58;73.27;;;42.57;;
4915;SDS011;70796;52.406;13.230;2024-03-02T01:17:24;61.93;;;38.37;;
4915;SDS011;70796;52.406;13.230;2024-03-02T01:19:50;63.23;;;39.60;;
4915;SDS011;70796;52.406;13.230;2024-03-02T01:22:16;70.83;;;40.33;;
4915;SDS011;70796;52.406;13.230;2024-03-02T01:24:45;70.13;;;41.77;;
4915;SDS011;70796;52.406;13.230;2024-03-02T01:27:11;77.17;;;42.37;;
4915;SDS011;70796;52.406;13.230;2024-03-02T01:29:38;68.80;;;39.63;;
4915;SDS011;70796;52.406;13.230;2024-03-02T01:32:04;65.00;;;40.50;;
4915;SDS011;70796;52.406;13.230;2024-03-02T01:34:30;67.37;;;39.50;;
4915;SDS011;70796;52.406;13.230;2024-03-02T01:36:56;71.00;;;40.30;;
4915;SDS011;70796;52.406;13.230;2024-03-02T01:39:22;67.30;;;40.00;;
4915;SDS011;70796;52.406;13.230;2024-03-02T01:41:49;65.37;;;40.07;;
4915;SDS011;70796;52.406;13.230;2024-03-02T01:44:15;65.73;;;39.90;;
4915;SDS011;70796;52.406;13.230;2024-03-02T01:46:41;70.57;;;41.00;;
4915;SDS011;70796;52.406;13.230;2024-03-02T01:49:07;74.43;;;41.50;;
4915;SDS011;70796;52.406;13.230;2024-03-02T01:51:33;76.63;;;42.10;;
4915;SDS011;70796;52.406;13.230;2024-03-02T01:54:00;72.20;;;41.03;;
4915;SDS011;70796;52.406;13.230;2024-03-02T01:56:26;74.50;;;42.80;;
4915;SDS011;70796;52.406;13.230;2024-03-02T01:58:52;76.60;;;39.77;;
4915;SDS011;70796;52.406;13.230;2024-03-02T02:01:18;70.67;;;40.13;;
4915;SDS011;70796;52.406;13.230;2024-03-02T02:03:44;67.77;;;38.27;;
4915;SDS011;70796;52.406;13.230;2024-03-02T02:06:10;70.33;;;40.67;;
4915;SDS011;70796;52.406;13.230;2024-03-02T02:08:37;72.30;;;40.70;;
4915;SDS011;70796;52.406;13.230;2024-03-02T02:11:03;69.97;;;40.80;;
4915;SDS011;70796;52.406;13.230;2024-03-02T02:13:29;72.33;;;41.50;;
4915;SDS011;70796;52.406;13.230;2024-03-02T02:15:56;71.43;;;40.37;;
4915;SDS011;70796;52.406;13.230;2024-03-02T02:18:29;75.27;;;39.60;;
4915;SDS011;70796;52.406;13.230;2024-03-02T02:20:55;76.37;;;40.10;;
4915;SDS011;70796;52.406;13.230;2024-03-02T02:23:21;63.73;;;38.53;;
4915;SDS011;70796;52.406;13.230;2024-03-02T02:25:47;76.77;;;40.30;;
4915;SDS011;70796;52.406;13.230;2024-03-02T02:28:13;72.13;;;39.07;;
4915;SDS011;70796;52.406;13.230;2024-03-02T02:30:39;67.60;;;40.33;;
4915;SDS011;70796;52.406;13.230;2024-03-02T02:33:05;65.70;;;36.80;;
4915;SDS011;70796;52.406;13.230;2024-03-02T02:35:32;73.63;;;41.50;;
4915;SDS011;70796;52.406;13.230;2024-03-02T02:37:58;75.10;;;39.77;;
4915;SDS011;70796;52.406;13.230;2024-03-02T02:40:25;66.20;;;38.63;;
4915;SDS011;70796;52.406;13.230;2024-03-02T02:42:51;71.10;;;40.10;;
4915;SDS011;70796;52.406;13.230;2024-03-02T02:45:20;73.87;;;42.77;;
4915;SDS011;70796;52.406;13.230;2024-03-02T02:47:47;68.63;;;40.43;;
4915;SDS011;70796;52.406;13.230;2024-03-02T02:50:13;81.03;;;42.53;;
4915;SDS011;70796;52.406;13.230;2024-03-02T02:52:40;74.83;;;42.27;;
4915;SDS011;70796;52.406;13.230;2024-03-02T02:55:08;86.70;;;44.73;;
4915;SDS011;70796;52.406;13.230;2024-03-02T02:57:34;84.10;;;43.60;;
4915;SDS011;70796;52.406;13.230;2024-03-02T03:00:09;75.63;;;42.73;;
4915;SDS011;70796;52.406;13.230;2024-03-02T03:02:37;72.07;;;40.20;;
4915;SDS011;70796;52.406;13.230;2024-03-02T03:05:04;86.13;;;45.53;;
4915;SDS011;70796;52.406;13.230;2024-03-02T03:07:30;84.43;;;43.80;;
4915;SDS011;70796;52.406;13.230;2024-03-02T03:09:58;88.20;;;43.70;;
4915;SDS011;70796;52.406;13.230;2024-03-02T03:12:24;86.23;;;42.77;;
4915;SDS011;70796;52.406;13.230;2024-03-02T03:14:50;84.67;;;42.43;;
4915;SDS011;70796;52.406;13.230;2024-03-02T03:17:16;78.03;;;41.63;;
4915;SDS011;70796;52.406;13.230;2024-03-02T03:19:43;76.33;;;43.53;;
4915;SDS011;70796;52.406;13.230;2024-03-02T03:22:09;76.90;;;41.50;;
4915;SDS011;70796;52.406;13.230;2024-03-02T03:24:35;75.73;;;41.40;;
4915;SDS011;70796;52.406;13.230;2024-03-02T03:27:02;79.87;;;42.50;;
4915;SDS011;70796;52.406;13.230;2024-03-02T03:29:28;80.67;;;41.40;;
4915;SDS011;70796;52.406;13.230;2024-03-02T03:31:54;79.60;;;43.10;;
4915;SDS011;70796;52.406;13.230;2024-03-02T03:34:20;77.87;;;41.47;;
4915;SDS011;70796;52.406;13.230;2024-03-02T03:36:46;86.97;;;42.97;;
4915;SDS011;70796;52.406;13.230;2024-03-02T03:39:12;75.67;;;42.50;;
4915;SDS011;70796;52.406;13.230;2024-03-02T03:41:40;76.03;;;42.30;;
4915;SDS011;70796;52.406;13.230;2024-03-02T03:44:06;76.30;;;43.70;;
4915;SDS011;70796;52.406;13.230;2024-03-02T03:46:32;71.33;;;39.90;;
4915;SDS011;70796;52.406;13.230;2024-03-02T03:48:58;73.47;;;39.53;;
4915;SDS011;70796;52.406;13.230;2024-03-02T03:51:27;69.87;;;39.57;;
4915;SDS011;70796;52.406;13.230;2024-03-02T03:53:53;70.13;;;38.83;;
4915;SDS011;70796;52.406;13.230;2024-03-02T03:56:20;66.80;;;39.70;;
4915;SDS011;70796;52.406;13.230;2024-03-02T03:58:46;75.60;;;41.27;;
4915;SDS011;70796;52.406;13.230;2024-03-02T04:01:12;69.40;;;39.80;;
4915;SDS011;70796;52.406;13.230;2024-03-02T04:03:38;72.27;;;39.13;;
4915;SDS011;70796;52.406;13.230;2024-03-02T04:06:04;75.87;;;42.40;;
4915;SDS011;70796;52.406;13.230;2024-03-02T04:08:31;65.60;;;39.90;;
4915;SDS011;70796;52.406;13.230;2024-03-02T04:10:57;73.00;;;40.57;;
4915;SDS011;70796;52.406;13.230;2024-03-02T04:13:23;81.17;;;42.30;;
4915;SDS011;70796;52.406;13.230;2024-03-02T04:15:49;73.53;;;39.80;;
4915;SDS011;70796;52.406;13.230;2024-03-02T04:18:15;75.77;;;40.60;;
4915;SDS011;70796;52.406;13.230;2024-03-02T04:20:42;77.10;;;42.00;;
4915;SDS011;70796;52.406;13.230;2024-03-02T04:23:08;69.53;;;38.83;;
4915;SDS011;70796;52.406;13.230;2024-03-02T04:25:34;72.37;;;41.00;;
4915;SDS011;70796;52.406;13.230;2024-03-02T04:28:00;69.90;;;40.40;;
4915;SDS011;70796;52.406;13.230;2024-03-02T04:30:26;77.30;;;41.03;;
4915;SDS011;70796;52.406;13.230;2024-03-02T04:32:53;68.23;;;40.20;;
4915;SDS011;70796;52.406;13.230;2024-03-02T04:35:19;83.20;;;42.43;;
4915;SDS011;70796;52.406;13.230;2024-03-02T04:37:45;66.47;;;39.40;;
4915;SDS011;70796;52.406;13.230;2024-03-02T04:40:11;77.40;;;38.87;;
4915;SDS011;70796;52.406;13.230;2024-03-02T04:42:38;70.93;;;41.07;;
4915;SDS011;70796;52.406;13.230;2024-03-02T04:45:04;70.00;;;39.50;;
4915;SDS011;70796;52.406;13.230;2024-03-02T04:47:30;65.63;;;38.37;;
4915;SDS011;70796;52.406;13.230;2024-03-02T04:49:56;72.47;;;39.07;;
4915;SDS011;70796;52.406;13.230;2024-03-02T04:52:22;69.40;;;37.40;;
4915;SDS011;70796;52.406;13.230;2024-03-02T04:54:48;65.47;;;39.30;;
4915;SDS011;70796;52.406;13.230;2024-03-02T04:57:41;71.37;;;38.43;;
4915;SDS011;70796;52.406;13.230;2024-03-02T05:00:07;66.37;;;37.70;;
4915;SDS011;70796;52.406;13.230;2024-03-02T05:02:35;71.27;;;40.00;;
4915;SDS011;70796;52.406;13.230;2024-03-02T05:05:01;67.57;;;39.00;;
4915;SDS011;70796;52.406;13.230;2024-03-02T05:07:28;61.30;;;37.50;;
4915;SDS011;70796;52.406;13.230;2024-03-02T05:09:54;64.47;;;38.50;;
4915;SDS011;70796;52.406;13.230;2024-03-02T05:12:20;75.60;;;41.50;;
4915;SDS011;70796;52.406;13.230;2024-03-02T05:15:05;65.63;;;37.53;;
4915;SDS011;70796;52.406;13.230;2024-03-02T05:17:33;72.27;;;42.57;;
4915;SDS011;70796;52.406;13.230;2024-03-02T05:19:59;77.53;;;42.23;;
4915;SDS011;70796;52.406;13.230;2024-03-02T05:22:25;71.43;;;39.33;;
4915;SDS011;70796;52.406;13.230;2024-03-02T05:24:51;70.70;;;39.90;;
4915;SDS011;70796;52.406;13.230;2024-03-02T05:27:17;71.33;;;41.80;;
4915;SDS011;70796;52.406;13.230;2024-03-02T05:29:43;83.20;;;42.27;;
4915;SDS011;70796;52.406;13.230;2024-03-02T05:32:09;78.97;;;40.50;;
4915;SDS011;70796;52.406;13.230;2024-03-02T05:34:36;74.13;;;41.30;;
4915;SDS011;70796;52.406;13.230;2024-03-02T05:37:02;78.73;;;41.00;;
4915;SDS011;70796;52.406;13.230;2024-03-02T05:39:28;81.93;;;42.10;;
4915;SDS011;70796;52.406;13.230;2024-03-02T05:41:54;76.57;;;43.23;;
4915;SDS011;70796;52.406;13.230;2024-03-02T05:44:20;82.73;;;41.50;;
4915;SDS011;70796;52.406;13.230;2024-03-02T05:46:46;75.93;;;42.20;;
4915;SDS011;70796;52.406;13.230;2024-03-02T05:49:12;79.57;;;42.77;;
4915;SDS011;70796;52.406;13.230;2024-03-02T05:51:39;73.30;;;44.23;;
4915;SDS011;70796;52.406;13.230;2024-03-02T05:54:05;80.20;;;44.30;;
4915;SDS011;70796;52.406;13.230;2024-03-02T05:56:31;79.47;;;39.73;;
4915;SDS011;70796;52.406;13.230;2024-03-02T05:58:58;76.70;;;43.30;;
4915;SDS011;70796;52.406;13.230;2024-03-02T06:01:40;79.13;;;41.50;;
4915;SDS011;70796;52.406;13.230;2024-03-02T06:04:06;79.17;;;43.20;;
4915;SDS011;70796;52.406;13.230;2024-03-02T06:06:33;76.27;;;42.27;;
4915;SDS011;70796;52.406;13.230;2024-03-02T06:09:00;75.63;;;40.67;;
4915;SDS011;70796;52.406;13.230;2024-03-02T06:11:26;69.80;;;39.60;;
4915;SDS011;70796;52.406;13.230;2024-03-02T06:13:52;80.50;;;43.10;;
4915;SDS011;70796;52.406;13.230;2024-03-02T06:16:18;72.10;;;40.47;;
4915;SDS011;70796;52.406;13.230;2024-03-02T06:18:45;69.43;;;40.40;;
4915;SDS011;70796;52.406;13.230;2024-03-02T06:21:11;70.10;;;40.93;;
4915;SDS011;70796;52.406;13.230;2024-03-02T06:23:37;75.03;;;40.87;;
4915;SDS011;70796;52.406;13.230;2024-03-02T06:26:03;80.27;;;43.27;;
4915;SDS011;70796;52.406;13.230;2024-03-02T06:28:29;76.20;;;42.30;;
4915;SDS011;70796;52.406;13.230;2024-03-02T06:30:55;79.40;;;41.30;;
4915;SDS011;70796;52.406;13.230;2024-03-02T06:33:22;78.40;;;42.33;;
4915;SDS011;70796;52.406;13.230;2024-03-02T06:35:48;74.97;;;41.43;;
4915;SDS011;70796;52.406;13.230;2024-03-02T06:38:15;77.57;;;40.97;;
4915;SDS011;70796;52.406;13.230;2024-03-02T06:40:41;75.60;;;41.00;;
4915;SDS011;70796;52.406;13.230;2024-03-02T06:43:07;75.93;;;40.70;;
4915;SDS011;70796;52.406;13.230;2024-03-02T06:45:33;78.77;;;42.47;;
4915;SDS011;70796;52.406;13.230;2024-03-02T06:48:00;70.70;;;39.67;;
4915;SDS011;70796;52.406;13.230;2024-03-02T06:50:26;70.90;;;40.33;;
4915;SDS011;70796;52.406;13.230;2024-03-02T06:52:52;71.70;;;38.03;;
4915;SDS011;70796;52.406;13.230;2024-03-02T06:55:19;68.37;;;37.70;;
4915;SDS011;70796;52.406;13.230;2024-03-02T06:57:45;85.10;;;40.30;;
4915;SDS011;70796;52.406;13.230;2024-03-02T07:00:11;67.40;;;37.17;;
4915;SDS011;70796;52.406;13.230;2024-03-02T07:02:38;69.70;;;40.20;;
4915;SDS011;70796;52.406;13.230;2024-03-02T07:05:06;71.20;;;39.33;;
4915;SDS011;70796;52.406;13.230;2024-03-02T07:07:34;71.63;;;38.13;;
4915;SDS011;70796;52.406;13.230;2024-03-02T07:10:00;76.43;;;39.50;;
4915;SDS011;70796;52.406;13.230;2024-03-02T07:12:27;67.13;;;39.47;;
4915;SDS011;70796;52.406;13.230;2024-03-02T07:14:53;72.30;;;39.50;;
4915;SDS011;70796;52.406;13.230;2024-03-02T07:17:31;68.50;;;38.63;;
4915;SDS011;70796;52.406;13.230;2024-03-02T07:19:57;76.80;;;39.90;;
4915;SDS011;70796;52.406;13.230;2024-03-02T07:22:25;66.43;;;38.00;;
4915;SDS011;70796;52.406;13.230;2024-03-02T07:24:51;82.63;;;39.40;;
4915;SDS011;70796;52.406;13.230;2024-03-02T07:27:17;71.30;;;40.50;;
4915;SDS011;70796;52.406;13.230;2024-03-02T07:29:44;63.00;;;37.07;;
4915;SDS011;70796;52.406;13.230;2024-03-02T07:32:10;69.90;;;39.73;;
4915;SDS011;70796;52.406;13.230;2024-03-02T07:34:36;64.80;;;38.20;;
4915;SDS011;70796;52.406;13.230;2024-03-02T07:37:03;74.10;;;37.27;;
4915;SDS011;70796;52.406;13.230;2024-03-02T07:39:29;61.23;;;36.50;;
4915;SDS011;70796;52.406;13.230;2024-03-02T07:41:56;69.73;;;39.80;;
4915;SDS011;70796;52.406;13.230;2024-03-02T07:44:22;72.57;;;37.90;;
4915;SDS011;70796;52.406;13.230;2024-03-02T07:46:48;67.13;;;37.33;;
4915;SDS011;70796;52.406;13.230;2024-03-02T07:49:18;76.37;;;39.17;;
4915;SDS011;70796;52.406;13.230;2024-03-02T07:51:44;77.03;;;39.30;;
4915;SDS011;70796;52.406;13.230;2024-03-02T07:54:10;72.23;;;41.43;;
4915;SDS011;70796;52.406;13.230;2024-03-02T07:56:37;67.23;;;37.30;;
4915;SDS011;70796;52.406;13.230;2024-03-02T07:59:03;68.87;;;37.93;;
4915;SDS011;70796;52.406;13.230;2024-03-02T08:01:30;64.53;;;36.20;;
4915;SDS011;70796;52.406;13.230;2024-03-02T08:04:00;71.97;;;38.67;;
4915;SDS011;70796;52.406;13.230;2024-03-02T08:06:29;75.60;;;38.20;;
4915;SDS011;70796;52.406;13.230;2024-03-02T08:08:56;71.67;;;38.20;;
4915;SDS011;70796;52.406;13.230;2024-03-02T08:11:23;62.80;;;36.57;;
4915;SDS011;70796;52.406;13.230;2024-03-02T08:13:49;65.67;;;37.10;;
4915;SDS011;70796;52.406;13.230;2024-03-02T08:16:16;66.47;;;36.77;;
4915;SDS011;70796;52.406;13.230;2024-03-02T08:18:42;68.80;;;36.20;;
4915;SDS011;70796;52.406;13.230;2024-03-02T08:21:10;69.00;;;36.10;;
4915;SDS011;70796;52.406;13.230;2024-03-02T08:23:36;64.57;;;33.40;;
4915;SDS011;70796;52.406;13.230;2024-03-02T08:26:06;70.40;;;34.50;;
4915;SDS011;70796;52.406;13.230;2024-03-02T08:28:32;62.53;;;36.10;;
4915;SDS011;70796;52.406;13.230;2024-03-02T08:30:59;65.03;;;34.83;;
4915;SDS011;70796;52.406;13.230;2024-03-02T08:33:25;70.63;;;38.93;;
4915;SDS011;70796;52.406;13.230;2024-03-02T08:35:51;62.23;;;36.50;;
4915;SDS011;70796;52.406;13.230;2024-03-02T08:38:17;61.47;;;34.50;;
4915;SDS011;70796;52.406;13.230;2024-03-02T08:40:43;71.60;;;37.10;;
4915;SDS011;70796;52.406;13.230;2024-03-02T08:43:10;67.00;;;36.73;;
4915;SDS011;70796;52.406;13.230;2024-03-02T08:45:36;68.07;;;35.70;;
4915;SDS011;70796;52.406;13.230;2024-03-02T08:48:02;70.43;;;35.63;;
4915;SDS011;70796;52.406;13.230;2024-03-02T08:50:29;61.87;;;36.80;;
4915;SDS011;70796;52.406;13.230;2024-03-02T08:52:55;58.67;;;34.63;;
4915;SDS011;70796;52.406;13.230;2024-03-02T08:55:21;62.10;;;36.60;;
4915;SDS011;70796;52.406;13.230;2024-03-02T08:57:47;64.77;;;35.60;;
4915;SDS011;70796;52.406;13.230;2024-03-02T09:00:13;63.13;;;37.00;;
4915;SDS011;70796;52.406;13.230;2024-03-02T09:02:40;59.10;;;35.63;;
4915;SDS011;70796;52.406;13.230;2024-03-02T09:05:06;65.37;;;35.20;;
4915;SDS011;70796;52.406;13.230;2024-03-02T09:07:32;77.73;;;35.40;;
4915;SDS011;70796;52.406;13.230;2024-03-02T09:09:58;57.60;;;34.07;;
4915;SDS011;70796;52.406;13.230;2024-03-02T09:12:24;66.30;;;37.07;;
4915;SDS011;70796;52.406;13.230;2024-03-02T09:14:50;58.63;;;34.93;;
4915;SDS011;70796;52.406;13.230;2024-03-02T09:17:16;62.67;;;34.53;;
4915;SDS011;70796;52.406;13.230;2024-03-02T09:19:42;57.77;;;33.23;;
4915;SDS011;70796;52.406;13.230;2024-03-02T09:22:09;56.90;;;33.10;;
4915;SDS011;70796;52.406;13.230;2024-03-02T09:24:35;65.43;;;34.20;;
4915;SDS011;70796;52.406;13.230;2024-03-02T09:27:01;57.90;;;33.77;;
4915;SDS011;70796;52.406;13.230;2024-03-02T09:29:28;58.13;;;34.80;;
4915;SDS011;70796;52.406;13.230;2024-03-02T09:31:55;59.20;;;33.67;;
4915;SDS011;70796;52.406;13.230;2024-03-02T09:34:21;58.30;;;34.33;;
4915;SDS011;70796;52.406;13.230;2024-03-02T09:36:48;56.30;;;32.07;;
4915;SDS011;70796;52.406;13.230;2024-03-02T09:39:17;53.33;;;30.47;;
4915;SDS011;70796;52.406;13.230;2024-03-02T09:41:44;53.50;;;30.03;;
4915;SDS011;70796;52.406;13.230;2024-03-02T09:44:10;52.13;;;30.37;;
4915;SDS011;70796;52.406;13.230;2024-03-02T09:46:36;53.20;;;29.50;;
4915;SDS011;70796;52.406;13.230;2024-03-02T09:49:02;53.13;;;29.40;;
4915;SDS011;70796;52.406;13.230;2024-03-02T09:51:29;52.40;;;29.50;;
4915;SDS011;70796;52.406;13.230;2024-03-02T09:53:55;48.70;;;28.60;;
4915;SDS011;70796;52.406;13.230;2024-03-02T09:56:31;50.00;;;29.80;;
4915;SDS011;70796;52.406;13.230;2024-03-02T09:58:57;54.07;;;29.47;;
4915;SDS011;70796;52.406;13.230;2024-03-02T10:01:25;48.10;;;28.23;;
4915;SDS011;70796;52.406;13.230;2024-03-02T10:03:51;49.33;;;27.80;;
4915;SDS011;70796;52.406;13.230;2024-03-02T10:06:27;52.70;;;29.97;;
4915;SDS011;70796;52.406;13.230;2024-03-02T10:08:54;47.13;;;28.70;;
4915;SDS011;70796;52.406;13.230;2024-03-02T10:16:35;42.50;;;27.53;;
4915;SDS011;70796;52.406;13.230;2024-03-02T10:21:40;46.70;;;26.07;;
4915;SDS011;70796;52.406;13.230;2024-03-02T10:24:07;40.77;;;26.37;;
4915;SDS011;70796;52.406;13.230;2024-03-02T10:26:33;45.17;;;25.53;;
4915;SDS011;70796;52.406;13.230;2024-03-02T10:28:59;44.27;;;26.97;;
4915;SDS011;70796;52.406;13.230;2024-03-02T10:31:26;48.67;;;27.60;;
4915;SDS011;70796;52.406;13.230;2024-03-02T10:33:54;41.10;;;24.13;;
4915;SDS011;70796;52.406;13.230;2024-03-02T10:39:12;40.57;;;24.47;;
4915;SDS011;70796;52.406;13.230;2024-03-02T10:41:38;39.10;;;21.90;;
4915;SDS011;70796;52.406;13.230;2024-03-02T10:44:05;38.60;;;23.00;;
4915;SDS011;70796;52.406;13.230;2024-03-02T10:46:32;38.70;;;23.47;;
4915;SDS011;70796;52.406;13.230;2024-03-02T10:49:02;40.83;;;24.13;;
4915;SDS011;70796;52.406;13.230;2024-03-02T10:51:33;45.60;;;25.00;;
4915;SDS011;70796;52.406;13.230;2024-03-02T10:54:02;40.73;;;23.23;;
4915;SDS011;70796;52.406;13.230;2024-03-02T10:56:47;37.73;;;23.20;;
4915;SDS011;70796;52.406;13.230;2024-03-02T10:59:18;37.63;;;22.40;;
4915;SDS011;70796;52.406;13.230;2024-03-02T11:01:48;37.20;;;24.20;;
4915;SDS011;70796;52.406;13.230;2024-03-02T11:04:18;38.13;;;23.50;;
4915;SDS011;70796;52.406;13.230;2024-03-02T11:06:47;39.50;;;21.00;;
4915;SDS011;70796;52.406;13.230;2024-03-02T11:09:14;37.67;;;22.77;;
4915;SDS011;70796;52.406;13.230;2024-03-02T11:11:41;35.37;;;21.90;;
4915;SDS011;70796;52.406;13.230;2024-03-02T11:14:10;36.97;;;21.70;;
4915;SDS011;70796;52.406;13.230;2024-03-02T11:16:39;39.37;;;23.43;;
4915;SDS011;70796;52.406;13.230;2024-03-02T11:19:07;37.90;;;21.40;;
4915;SDS011;70796;52.406;13.230;2024-03-02T11:21:39;32.33;;;21.57;;
4915;SDS011;70796;52.406;13.230;2024-03-02T11:26:48;39.40;;;22.07;;
4915;SDS011;70796;52.406;13.230;2024-03-02T11:29:58;32.67;;;21.50;;
4915;SDS011;70796;52.406;13.230;2024-03-02T11:32:24;34.97;;;21.10;;
4915;SDS011;70796;52.406;13.230;2024-03-02T11:34:50;37.33;;;20.57;;
4915;SDS011;70796;52.406;13.230;2024-03-02T11:37:17;34.87;;;21.40;;
4915;SDS011;70796;52.406;13.230;2024-03-02T11:39:44;33.57;;;20.97;;
4915;SDS011;70796;52.406;13.230;2024-03-02T11:42:10;37.17;;;20.60;;
4915;SDS011;70796;52.406;13.230;2024-03-02T11:44:37;35.63;;;21.90;;
4915;SDS011;70796;52.406;13.230;2024-03-02T11:47:07;37.33;;;21.77;;
4915;SDS011;70796;52.406;13.230;2024-03-02T11:52:03;35.23;;;21.10;;
4915;SDS011;70796;52.406;13.230;2024-03-02T11:54:33;34.10;;;19.97;;
4915;SDS011;70796;52.406;13.230;2024-03-02T11:57:02;35.43;;;20.53;;
4915;SDS011;70796;52.406;13.230;2024-03-02T11:59:29;34.37;;;21.37;;
4915;SDS011;70796;52.406;13.230;2024-03-02T12:01:55;38.93;;;22.03;;
4915;SDS011;70796;52.406;13.230;2024-03-02T12:04:22;35.33;;;21.00;;
4915;SDS011;70796;52.406;13.230;2024-03-02T12:06:55;30.13;;;19.90;;
4915;SDS011;70796;52.406;13.230;2024-03-02T12:09:22;35.77;;;21.97;;
4915;SDS011;70796;52.406;13.230;2024-03-02T12:11:48;36.17;;;20.87;;
4915;SDS011;70796;52.406;13.230;2024-03-02T12:14:26;34.03;;;21.30;;
4915;SDS011;70796;52.406;13.230;2024-03-02T12:16:56;34.23;;;21.47;;
4915;SDS011;70796;52.406;13.230;2024-03-02T12:19:24;33.40;;;20.80;;
4915;SDS011;70796;52.406;13.230;2024-03-02T12:21:52;35.13;;;22.27;;
4915;SDS011;70796;52.406;13.230;2024-03-02T12:24:18;32.83;;;21.77;;
4915;SDS011;70796;52.406;13.230;2024-03-02T12:26:44;36.47;;;21.70;;
4915;SDS011;70796;52.406;13.230;2024-03-02T12:29:11;33.93;;;21.40;;
4915;SDS011;70796;52.406;13.230;2024-03-02T12:31:38;35.47;;;21.87;;
4915;SDS011;70796;52.406;13.230;2024-03-02T12:34:05;40.23;;;20.70;;
4915;SDS011;70796;52.406;13.230;2024-03-02T12:36:36;30.40;;;20.50;;
4915;SDS011;70796;52.406;13.230;2024-03-02T12:39:02;33.50;;;20.40;;
4915;SDS011;70796;52.406;13.230;2024-03-02T12:41:28;32.67;;;20.00;;
4915;SDS011;70796;52.406;13.230;2024-03-02T12:43:57;36.30;;;21.13;;
4915;SDS011;70796;52.406;13.230;2024-03-02T12:46:24;33.57;;;20.50;;
4915;SDS011;70796;52.406;13.230;2024-03-02T12:48:51;27.37;;;17.17;;
4915;SDS011;70796;52.406;13.230;2024-03-02T12:51:17;28.40;;;18.00;;
4915;SDS011;70796;52.406;13.230;2024-03-02T12:53:43;27.80;;;17.53;;
4915;SDS011;70796;52.406;13.230;2024-03-02T12:56:09;28.20;;;17.37;;
4915;SDS011;70796;52.406;13.230;2024-03-02T12:58:41;32.60;;;17.63;;
4915;SDS011;70796;52.406;13.230;2024-03-02T13:01:08;29.50;;;18.27;;
4915;SDS011;70796;52.406;13.230;2024-03-02T13:03:36;28.53;;;18.03;;
4915;SDS011;70796;52.406;13.230;2024-03-02T13:06:02;34.80;;;20.93;;
4915;SDS011;70796;52.406;13.230;2024-03-02T13:08:28;28.43;;;19.07;;
4915;SDS011;70796;52.406;13.230;2024-03-02T13:10:54;34.30;;;19.23;;
4915;SDS011;70796;52.406;13.230;2024-03-02T13:13:21;34.73;;;19.80;;
4915;SDS011;70796;52.406;13.230;2024-03-02T13:15:49;34.23;;;21.27;;
4915;SDS011;70796;52.406;13.230;2024-03-02T13:18:17;35.00;;;20.00;;
4915;SDS011;70796;52.406;13.230;2024-03-02T13:20:43;30.47;;;20.17;;
4915;SDS011;70796;52.406;13.230;2024-03-02T13:23:09;32.20;;;20.00;;
4915;SDS011;70796;52.406;13.230;2024-03-02T13:25:36;36.53;;;21.87;;
4915;SDS011;70796;52.406;13.230;2024-03-02T13:28:02;31.13;;;20.00;;
4915;SDS011;70796;52.406;13.230;2024-03-02T13:30:29;36.30;;;21.03;;
4915;SDS011;70796;52.406;13.230;2024-03-02T13:32:55;34.27;;;21.30;;
4915;SDS011;70796;52.406;13.230;2024-03-02T13:35:21;32.63;;;19.87;;
4915;SDS011;70796;52.406;13.230;2024-03-02T13:37:47;33.00;;;19.03;;
4915;SDS011;70796;52.406;13.230;2024-03-02T13:40:13;33.97;;;19.43;;
4915;SDS011;70796;52.406;13.230;2024-03-02T13:42:44;30.03;;;18.03;;
4915;SDS011;70796;52.406;13.230;2024-03-02T13:45:10;29.63;;;17.40;;
4915;SDS011;70796;52.406;13.230;2024-03-02T13:47:36;29.47;;;18.63;;
4915;SDS011;70796;52.406;13.230;2024-03-02T13:50:02;28.30;;;17.87;;
4915;SDS011;70796;52.406;13.230;2024-03-02T13:52:30;27.23;;;16.33;;
4915;SDS011;70796;52.406;13.230;2024-03-02T13:54:56;31.03;;;18.13;;
4915;SDS011;70796;52.406;13.230;2024-03-02T13:57:22;32.40;;;16.87;;
4915;SDS011;70796;52.406;13.230;2024-03-02T13:59:52;27.63;;;16.47;;
4915;SDS011;70796;52.406;13.230;2024-03-02T14:02:18;28.23;;;15.47;;
4915;SDS011;70796;52.406;13.230;2024-03-02T14:04:44;25.30;;;15.07;;
4915;SDS011;70796;52.406;13.230;2024-03-02T14:07:10;26.00;;;15.43;;
4915;SDS011;70796;52.406;13.230;2024-03-02T14:09:38;23.40;;;14.27;;
4915;SDS011;70796;52.406;13.230;2024-03-02T14:12:04;23.93;;;15.00;;
4915;SDS011;70796;52.406;13.230;2024-03-02T14:14:31;21.43;;;14.10;;
4915;SDS011;70796;52.406;13.230;2024-03-02T14:16:57;21.93;;;13.80;;
4915;SDS011;70796;52.406;13.230;2024-03-02T14:19:29;22.73;;;13.60;;
4915;SDS011;70796;52.406;13.230;2024-03-02T14:21:55;22.00;;;13.30;;
4915;SDS011;70796;52.406;13.230;2024-03-02T14:24:22;26.57;;;14.07;;
4915;SDS011;70796;52.406;13.230;2024-03-02T14:26:52;23.73;;;13.50;;
4915;SDS011;70796;52.406;13.230;2024-03-02T14:29:27;23.53;;;14.30;;
4915;SDS011;70796;52.406;13.230;2024-03-02T14:31:55;21.90;;;14.13;;
4915;SDS011;70796;52.406;13.230;2024-03-02T14:34:21;19.53;;;13.37;;
4915;SDS011;70796;52.406;13.230;2024-03-02T14:36:48;21.13;;;13.10;;
4915;SDS011;70796;52.406;13.230;2024-03-02T14:39:14;20.73;;;11.93;;
4915;SDS011;70796;52.406;13.230;2024-03-02T14:41:40;19.53;;;11.90;;